Eyrarbakki, Iceland

10:27 AM GMT on October 19, 2019 (GMT +0000)
Jaðar | | Change Station

Elev 30 ft 63.83 °N, 21.05 °W | Updated 9 seconds ago

Mostly Cloudy
Mostly Cloudy
34.2 °F
Feels Like 31 °F
N
4
Wind Variable Wind from East
Gusts 4.0 mph

Today
High -- | Low -- °F
--% Chance of Precip.
Yesterday
High -- | Low -- °F
Precip. -- in
Pressure 30.12 in
Visibility 6.2 miles
Clouds Few 1700 ft
Scattered Clouds 2300 ft
Mostly Cloudy 3700 ft
Windchill 31 °F
Dew Point 33 °F
Humidity 95%
Rainfall 0.00 in
Snow Depth Not available.
8:24 AM 5:52 PM
Waning Gibbous, 72% visible
METAR BIRK 191000Z 04003KT 9999 FEW017 SCT023 BKN037 04/01 Q1020 RESHRA
Pressure 30.12 in
Visibility 6.2 miles
Clouds Few 1700 ft
Scattered Clouds 2300 ft
Mostly Cloudy 3700 ft
Windchill 31 °F
Dew Point 33 °F
Humidity 95%
Rainfall 0.00 in
Snow Depth Not available.
8:24 AM 5:52 PM
Waning Gibbous, 72% visible
METAR BIRK 191000Z 04003KT 9999 FEW017 SCT023 BKN037 04/01 Q1020 RESHRA

Get Severe Weather Alerts

Thanks for signing up!

Be on the lookout for a verification email in your inbox.

You'll start receiving the daily forecast at 6 AM.

×

10-Day Weather Forecast

×

Almanac

Astronomy

Oct. 19, 2019 Rise Set
Actual Time
Civil Twilight
Nautical Twilight
Astronomical Twilight
Moon
Length of Visible Light
Length of Day
Tomorrow will be .
, % of the Moon is Illuminated

Today's Extremes

Country Highs Country Lows

Community

WunderPhotos

Category 6

Welcome to Category 6. This is the collective home for Weather Underground's featured writeups by Dr. Jeff Masters (right), Bob Henson (left), Chris Burt, and other regular contributors.

Nearby

Air Quality

  Air Quality AQ Index Pollutant
Not available.

Snow Depth

Station Depth Elevation

Earthquake Activity

City Distance Mag. Time & Date
Minimum magnitude displayed is 2.5.

Coastal Water Temperatures

Place Temperature

Stations

Nearby Weather Stations

Station Location Temp. Windchill Dew Point Humidity Wind Precip. Elev Updated Type